Latest Weather Observations for Kyabram

IDV60801

Issued at 3:31 am EST Thursday 28 May 2015 (issued every 30 minutes, with the page automatically refreshed every 10 minutes)

About weather observations | Map of weather stations | Latest weather observations for VIC | Other Formats
Station Details ID: 080091 Name: KYABRAM Lat: -36.34 Lon: 145.06 Height: 105.0 m
Data from the previous 72 hours. | See also: Recent months at Kyabram
Date/Time
EST
Temp
°C
App
Temp
°C
Dew
Point
Rel
Hum
%
Delta-T
°C
Wind Press
QNH
hPa
Press
MSL
hPa
Rain
since 9 am
mm
Dir
 
Spd
km/h
Gust
km/h
Spd
kts
Gust
kts
28/03:30am 9.5 9.4 9.5 100 0.0 CALM 0 6 0 3 - - 0.0
28/03:00am 9.6 9.5 9.6 100 0.0 CALM 0 0 0 0 - - 0.0
28/02:30am 10.2 9.5 10.2 100 0.0 ENE 4 9 2 5 - - 0.0
28/02:00am 10.6 9.5 10.6 100 0.0 NE 7 11 4 6 - - 0.0
28/01:30am 10.6 10.1 10.6 100 0.0 ENE 4 7 2 4 - - 0.0
28/01:00am 10.3 9.1 10.3 100 0.0 ENE 7 11 4 6 - - 0.0
28/12:30am 10.5 9.0 10.5 100 0.0 ENE 9 13 5 7 - - 0.0
28/12:00am 10.3 9.0 10.1 99 0.1 ENE 7 13 4 7 - - 0.0
 
Date/Time
EST
Temp
°C
App
Temp
°C
Dew
Point
Rel
Hum
%
Delta-T
°C
Wind Press
QNH
hPa
Press
MSL
hPa
Rain
since 9 am
mm
Dir
 
Spd
km/h
Gust
km/h
Spd
kts
Gust
kts
27/11:30pm 10.5 8.9 10.3 99 0.1 ENE 9 15 5 8 - - 0.0
27/11:00pm 10.8 8.9 10.6 99 0.1 E 11 15 6 8 - - 0.0
27/10:30pm 10.8 9.3 10.6 99 0.1 E 9 15 5 8 - - 0.0
27/10:00pm 11.1 9.7 10.9 99 0.1 E 9 13 5 7 - - 0.0
27/09:30pm 11.5 10.1 10.9 96 0.3 E 9 15 5 8 - - 0.0
27/09:00pm 11.8 10.3 10.7 93 0.6 E 9 15 5 8 - - 0.0
27/08:30pm 12.5 10.7 10.7 89 0.9 E 11 15 6 8 - - 0.0
27/08:00pm 13.1 12.0 10.8 86 1.2 E 7 13 4 7 - - 0.0
27/07:30pm 13.3 12.3 11.0 86 1.2 E 7 11 4 6 - - 0.0
27/07:00pm 12.2 12.4 10.4 89 0.9 CALM 0 0 0 0 - - 0.0
27/06:30pm 11.8 11.9 10.2 90 0.8 CALM 0 0 0 0 - - 0.0
27/06:00pm 13.0 13.4 11.1 88 1.0 CALM 0 0 0 0 - - 0.0
27/05:30pm 13.8 13.9 10.2 79 1.9 CALM 0 0 0 0 - - 0.0
27/05:00pm 15.8 16.1 10.8 72 2.7 CALM 0 0 0 0 - - 0.0
27/04:30pm 17.6 17.8 10.7 64 3.7 CALM 0 4 0 2 - - 0.0
27/04:00pm 18.5 17.1 10.8 61 4.2 E 9 15 5 8 - - 0.0
27/03:30pm 18.7 17.1 10.3 58 4.5 ENE 9 15 5 8 - - 0.0
27/03:00pm 18.8 18.0 10.9 60 4.3 E 6 15 3 8 - - 0.0
27/02:30pm 17.5 16.3 10.4 63 3.8 E 7 13 4 7 - - 0.0
27/02:00pm 17.9 16.8 10.8 63 3.8 NE 7 13 4 7 - - 0.0
27/01:30pm 16.7 15.5 10.3 66 3.4 ENE 7 13 4 7 - - 0.0
27/01:00pm 16.0 13.9 9.7 66 3.3 NE 11 19 6 10 - - 0.0
27/12:30pm 15.5 13.9 10.1 70 2.8 NE 9 20 5 11 - - 0.0
27/12:00pm 14.6 12.8 9.4 71 2.7 ENE 9 15 5 8 - - 0.0
27/11:30am 14.4 11.8 9.4 72 2.6 ENE 13 22 7 12 - - 0.0
27/11:00am 13.7 11.5 9.2 74 2.3 ENE 11 17 6 9 - - 0.0
27/10:30am 13.4 11.2 9.3 76 2.1 ENE 11 17 6 9 - - 0.0
27/10:00am 12.9 10.7 9.2 78 1.9 ENE 11 15 6 8 - - 0.0
27/09:30am 12.1 9.8 8.9 81 1.6 E 11 17 6 9 - - 0.0
27/09:00am 11.7 9.3 8.6 81 1.5 E 11 19 6 10 - - 0.0
27/08:30am 10.3 7.4 8.1 86 1.1 E 13 17 7 9 - - 0.0
27/08:00am 10.3 7.8 8.1 86 1.1 ENE 11 17 6 9 - - 0.0
27/07:30am 10.1 7.6 8.0 87 1.0 ENE 11 17 6 9 - - 0.0
27/07:00am 10.1 7.5 7.9 86 1.1 E 11 17 6 9 - - 0.0
27/06:30am 10.0 7.0 7.9 87 1.0 E 13 17 7 9 - - 0.0
27/06:00am 10.0 7.5 8.1 88 0.9 ESE 11 15 6 8 - - 0.0
27/05:30am 10.2 7.7 8.1 87 1.0 E 11 17 6 9 - - 0.0
27/05:00am 10.0 7.5 8.4 90 0.8 E 11 15 6 8 - - 0.0
27/04:30am 10.1 7.6 8.4 89 0.8 E 11 17 6 9 - - 0.0
27/04:00am 10.2 8.2 8.5 89 0.8 E 9 13 5 7 - - 0.0
27/03:30am 10.2 8.5 8.5 89 0.8 E 7 13 4 7 - - 0.0
27/03:00am 10.5 10.1 8.4 87 1.0 CALM 0 0 0 0 - - 0.0
27/02:30am 10.2 9.9 8.6 90 0.8 CALM 0 0 0 0 - - 0.0
27/02:00am 10.0 9.7 8.6 91 0.7 CALM 0 0 0 0 - - 0.0
27/01:30am 9.9 9.6 8.5 91 0.7 CALM 0 0 0 0 - - 0.0
27/01:00am 10.0 9.6 8.4 90 0.8 CALM 0 0 0 0 - - 0.0
27/12:30am 9.9 9.6 8.5 91 0.7 CALM 0 0 0 0 - - 0.0
27/12:00am 9.6 9.2 8.4 92 0.6 CALM 0 0 0 0 - - 0.0
 
Date/Time
EST
Temp
°C
App
Temp
°C
Dew
Point
Rel
Hum
%
Delta-T
°C
Wind Press
QNH
hPa
Press
MSL
hPa
Rain
since 9 am
mm
Dir
 
Spd
km/h
Gust
km/h
Spd
kts
Gust
kts
26/11:30pm 9.7 9.3 8.3 91 0.7 CALM 0 0 0 0 - - 0.0
26/11:00pm 9.8 9.5 8.6 92 0.6 CALM 0 0 0 0 - - 0.0
26/10:30pm 9.8 9.4 8.2 90 0.8 CALM 0 0 0 0 - - 0.0
26/10:00pm 10.4 9.5 7.8 84 1.3 E 2 7 1 4 - - 0.0
26/09:30pm 10.5 9.6 7.9 84 1.3 E 2 9 1 5 - - 0.0
26/09:00pm 10.9 10.5 8.1 83 1.4 CALM 0 0 0 0 - - 0.0
26/08:30pm 10.9 10.4 8.0 82 1.4 CALM 0 0 0 0 - - 0.0
26/08:00pm 11.0 10.6 8.2 83 1.4 CALM 0 0 0 0 - - 0.0
26/07:30pm 11.2 10.8 8.4 83 1.4 CALM 0 0 0 0 - - 0.0
26/07:00pm 11.2 10.8 8.2 82 1.5 CALM 0 0 0 0 - - 0.0
26/06:30pm 11.2 10.9 8.6 84 1.3 CALM 0 0 0 0 - - 0.0
26/06:00pm 11.6 11.3 8.8 83 1.4 CALM 0 0 0 0 - - 0.0
26/05:30pm 11.8 11.6 9.0 83 1.4 CALM 0 0 0 0 - - 0.0
26/05:00pm 12.8 12.6 9.1 78 1.9 CALM 0 0 0 0 - - 0.0
26/04:30pm 13.4 13.0 8.3 71 2.6 CALM 0 0 0 0 - - 0.0
26/04:00pm 13.6 13.3 8.7 72 2.5 CALM 0 0 0 0 - - 0.0
26/03:30pm 14.1 12.2 7.4 64 3.3 SE 7 11 4 6 - - 0.0
26/03:00pm 14.4 12.1 7.5 63 3.4 ESE 9 13 5 7 - - 0.0
26/02:30pm 14.6 12.3 7.4 62 3.6 E 9 13 5 7 - - 0.0
26/02:00pm 14.4 11.9 6.7 60 3.8 E 9 13 5 7 - - 0.0
26/01:30pm 14.3 11.9 7.1 62 3.5 E 9 15 5 8 - - 0.0
26/01:00pm 14.2 12.2 7.0 62 3.5 E 7 13 4 7 - - 0.0
26/12:30pm 14.9 13.6 7.5 61 3.7 ENE 4 11 2 6 - - 0.0
26/12:00pm 13.4 11.0 7.0 65 3.1 ESE 9 15 5 8 - - 0.0
26/11:30am 14.0 11.7 7.3 64 3.3 E 9 15 5 8 - - 0.0
26/11:00am 12.0 9.4 6.3 68 2.7 E 9 15 5 8 - - 0.0
26/10:30am 11.2 8.7 6.7 74 2.1 ESE 9 13 5 7 - - 0.0
26/10:00am 9.6 7.7 6.9 83 1.3 SE 6 13 3 7 - - 0.0
26/09:30am 8.1 7.4 6.9 92 0.6 CALM 0 0 0 0 - - 0.0
26/09:00am 7.5 6.7 6.4 93 0.5 CALM 0 0 0 0 - - 0.0
26/08:30am 5.9 3.6 5.8 99 0.0 SSE 7 11 4 6 - - 0.0
26/08:00am 4.5 2.5 4.5 100 0.0 S 4 9 2 5 - - 0.0
26/07:30am 4.2 1.8 4.2 100 0.0 SSE 6 11 3 6 - - 0.0
26/07:00am 4.2 2.9 4.2 100 0.0 CALM 0 0 0 0 - - 0.0
26/06:30am 3.9 2.6 3.9 100 0.0 CALM 0 0 0 0 - - 0.0
26/06:00am 3.5 2.1 3.5 100 0.0 CALM 0 0 0 0 - - 0.0
26/05:30am 3.7 1.2 3.6 99 0.0 S 6 9 3 5 - - 0.0
26/05:00am 4.1 1.1 4.1 100 0.0 S 9 11 5 6 - - 0.0
26/04:30am 4.1 1.5 4.0 99 0.0 S 7 9 4 5 - - 0.0
26/04:00am 4.5 1.9 4.4 99 0.0 S 7 9 4 5 - - 0.0
26/03:30am 4.8 1.9 4.7 99 0.0 S 9 13 5 7 - - 0.0
26/03:00am 4.8 2.3 4.7 99 0.0 S 7 11 4 6 - - 0.0
26/02:30am 5.1 2.6 5.0 99 0.0 S 7 11 4 6 - - 0.0
26/02:00am 5.2 2.8 5.1 99 0.0 S 7 9 4 5 - - 0.0
26/01:30am 5.4 4.3 5.3 99 0.0 CALM 0 0 0 0 - - 0.0
26/01:00am 5.9 4.9 5.8 99 0.0 CALM 0 7 0 4 - - 0.0
26/12:30am 6.1 4.0 5.7 97 0.2 S 6 9 3 5 - - 0.0
26/12:00am 6.5 4.3 5.3 92 0.5 S 6 9 3 5 - - 0.0
 
Date/Time
EST
Temp
°C
App
Temp
°C
Dew
Point
Rel
Hum
%
Delta-T
°C
Wind Press
QNH
hPa
Press
MSL
hPa
Rain
since 9 am
mm
Dir
 
Spd
km/h
Gust
km/h
Spd
kts
Gust
kts
25/11:30pm 7.2 4.9 5.8 91 0.6 SSE 7 13 4 7 - - 0.0
25/11:00pm 7.0 6.1 6.1 94 0.4 CALM 0 0 0 0 - - 0.0
25/10:30pm 7.6 6.7 6.1 90 0.7 CALM 0 0 0 0 - - 0.0
25/10:00pm 7.6 6.9 6.9 95 0.3 CALM 0 0 0 0 - - 0.0
25/09:30pm 7.8 6.8 5.6 86 1.0 CALM 0 0 0 0 - - 0.0
25/09:00pm 9.2 8.3 5.9 80 1.5 CALM 0 0 0 0 - - 0.0
25/08:30pm 9.9 8.6 6.1 77 1.8 S 2 7 1 4 - - 0.0
25/08:00pm 10.1 9.3 6.3 77 1.8 CALM 0 0 0 0 - - 0.0
25/07:30pm 10.5 9.7 6.5 76 1.9 CALM 0 0 0 0 - - 0.0
25/07:00pm 10.8 10.0 6.4 74 2.1 CALM 0 7 0 4 - - 0.0
25/06:30pm 11.3 10.4 6.2 71 2.4 CALM 0 0 0 0 - - 0.0
25/06:00pm 11.4 10.6 6.3 71 2.4 CALM 0 0 0 0 - - 0.0
25/05:30pm 11.5 10.6 6.2 70 2.5 CALM 0 0 0 0 - - 0.0
25/05:00pm 12.5 10.5 6.1 65 3.0 S 6 9 3 5 - - 0.0
25/04:30pm 13.9 11.3 6.3 60 3.7 S 9 15 5 8 - - 0.0
25/04:00pm 15.6 13.4 6.3 54 4.5 SSE 7 11 4 6 - - 0.0
25/03:30pm 17.1 15.5 6.3 49 5.3 ESE 4 11 2 6 - - 0.0
25/03:00pm 16.6 14.1 6.4 51 5.0 SE 9 13 5 7 - - 0.0
25/02:30pm 16.0 13.0 6.2 52 4.8 SE 11 17 6 9 - - 0.0
25/02:00pm 15.7 13.1 6.2 53 4.6 SSE 9 15 5 8 - - 0.0
25/01:30pm 15.9 13.9 6.9 55 4.5 SSE 7 11 4 6 - - 0.0
25/01:00pm 14.3 13.7 7.4 63 3.4 CALM 0 0 0 0 - - 0.0
25/12:30pm 14.2 12.3 7.7 65 3.2 SE 7 11 4 6 - - 0.0
25/12:00pm 13.4 11.5 7.4 67 2.9 ESE 7 11 4 6 - - 0.0
25/11:30am 12.5 11.2 7.8 73 2.3 E 4 11 2 6 - - 0.0
25/11:00am 10.6 8.6 6.9 78 1.8 ESE 7 11 4 6 - - 0.0
25/10:30am 9.6 7.9 7.5 87 1.0 S 6 7 3 4 - - 0.0
25/10:00am 8.9 7.1 8.0 94 0.4 S 7 11 4 6 - - 0.0
25/09:30am 7.6 5.7 7.5 99 0.0 S 7 9 4 5 - - 0.0
25/09:00am 6.6 5.4 6.6 100 0.0 S 2 9 1 5 - - 0.0
25/08:30am 5.9 5.0 5.9 100 0.0 CALM 0 0 0 0 - - 0.0
25/08:00am 5.4 4.4 5.4 100 0.0 CALM 0 0 0 0 - - 0.0
25/07:30am 5.2 4.1 5.2 100 0.0 CALM 0 0 0 0 - - 0.0
25/07:00am 4.9 3.8 4.9 100 0.0 CALM 0 0 0 0 - - 0.0
25/06:30am 5.2 4.1 5.2 100 0.0 CALM 0 0 0 0 - - 0.0
25/06:00am 4.6 3.4 4.6 100 0.0 CALM 0 0 0 0 - - 0.0
25/05:30am 4.5 3.3 4.5 100 0.0 CALM 0 0 0 0 - - 0.0
25/05:00am 4.6 3.4 4.6 100 0.0 CALM 0 0 0 0 - - 0.0
25/04:30am 5.6 4.6 5.6 100 0.0 CALM 0 0 0 0 - - 0.0
25/04:00am 5.6 4.6 5.6 100 0.0 CALM 0 0 0 0 - - 0.0

Other Formats:

Comma delimited format used in spreadsheet applications
http://www.bom.gov.au/fwo/IDV60801/IDV60801.95833.axf

JavaScript Object Notation format (JSON) in row-major order
http://www.bom.gov.au/fwo/IDV60801/IDV60801.95833.json